Time;durP1;ratioP1;P1;durP2;ratioP2;P2;SDS_P1;SDS_P2;PMS_P1;PMS_P2;Temp;Humidity;BMP_temperature;BMP_pressure;BME280_temperature;BME280_humidity;BME280_pressure;Samples;Min_cycle;Max_cycle;Signal;HPM_P1;HPM_P2
2024/02/01 00:02:11;;;;;;;4.27;3.50;;;10.60;99.90;;;;;;5033164;28;20475;-79
2024/02/01 00:04:39;;;;;;;3.67;3.20;;;10.60;99.90;;;;;;5034736;28;20551;-77
2024/02/01 00:07:09;;;;;;;3.30;3.10;;;10.70;99.90;;;;;;5033378;28;20547;-79
2024/02/01 00:09:37;;;;;;;3.10;2.90;;;10.70;99.90;;;;;;5030631;28;20465;-77
2024/02/01 00:12:06;;;;;;;2.97;2.77;;;10.70;1.00;;;;;;5033125;28;20519;-77
2024/02/01 00:14:34;;;;;;;4.10;2.87;;;10.70;99.90;;;;;;5035799;28;20448;-78
2024/02/01 00:17:03;;;;;;;5.00;3.90;;;10.70;99.90;;;;;;5029737;28;20456;-79
2024/02/01 00:19:32;;;;;;;6.30;3.10;;;10.70;99.90;;;;;;5034595;28;20497;-79
2024/02/01 00:22:00;;;;;;;3.10;2.90;;;10.70;99.90;;;;;;5038798;28;20490;-79
2024/02/01 00:24:29;;;;;;;4.00;3.70;;;10.70;99.90;;;;;;5039075;28;21100;-79
2024/02/01 00:26:57;;;;;;;4.37;3.33;;;10.70;99.90;;;;;;5035484;28;20530;-78
2024/02/01 00:29:26;;;;;;;3.27;2.80;;;10.70;99.90;;;;;;5038501;28;20561;-77
2024/02/01 00:31:54;;;;;;;3.10;2.87;;;10.70;99.90;;;;;;5035433;28;20480;-77
2024/02/01 00:34:22;;;;;;;3.37;3.07;;;10.70;99.90;;;;;;5039445;28;20444;-78
2024/02/01 00:36:51;;;;;;;3.20;3.00;;;10.70;99.90;;;;;;5039614;28;21060;-79
2024/02/01 00:39:19;;;;;;;3.10;2.67;;;10.80;99.90;;;;;;5036416;28;20484;-79
2024/02/01 00:41:48;;;;;;;2.67;2.57;;;10.70;99.90;;;;;;5038196;28;20474;-79
2024/02/01 00:44:17;;;;;;;2.53;2.40;;;10.70;99.90;;;;;;5039944;28;20689;-76
2024/02/01 00:46:45;;;;;;;4.17;2.80;;;10.70;99.90;;;;;;5034027;28;20452;-77
2024/02/01 00:49:13;;;;;;;3.17;2.90;;;10.70;99.90;;;;;;5033507;28;21053;-80
2024/02/01 00:51:41;;;;;;;3.53;3.13;;;10.80;99.90;;;;;;5034332;28;21007;-79
2024/02/01 00:54:09;;;;;;;5.17;3.60;;;10.80;99.90;;;;;;5039306;28;20460;-81
2024/02/01 00:56:37;;;;;;;6.17;3.30;;;10.80;99.90;;;;;;5035981;28;20463;-78
2024/02/01 00:59:07;;;;;;;3.10;2.90;;;10.80;99.90;;;;;;5032097;28;20486;-79
2024/02/01 01:01:35;;;;;;;4.93;4.40;;;10.80;99.90;;;;;;5034402;28;20448;-78
2024/02/01 01:04:03;;;;;;;5.97;5.47;;;10.80;1.00;;;;;;5038924;28;20526;-79
2024/02/01 01:06:31;;;;;;;5.33;4.83;;;10.70;1.00;;;;;;5036340;28;20588;-78
2024/02/01 01:08:59;;;;;;;6.27;5.07;;;10.60;1.00;;;;;;5035458;28;20749;-78
2024/02/01 01:11:30;;;;;;;6.33;5.60;;;10.50;1.00;;;;;;5034207;28;20501;-79
2024/02/01 01:13:58;;;;;;;5.63;5.13;;;10.50;1.00;;;;;;5038376;28;20452;-77
2024/02/01 01:16:28;;;;;;;6.20;5.60;;;10.50;1.00;;;;;;5035880;28;20456;-78
2024/02/01 01:18:56;;;;;;;6.20;5.60;;;10.50;1.00;;;;;;5039023;28;20452;-76
2024/02/01 01:21:25;;;;;;;5.87;5.37;;;10.50;1.00;;;;;;5037498;28;21127;-79
2024/02/01 01:23:53;;;;;;;7.40;5.93;;;10.50;1.00;;;;;;5039249;28;22532;-78
2024/02/01 01:26:22;;;;;;;5.60;5.10;;;10.40;1.00;;;;;;5036972;28;20460;-78
2024/02/01 01:28:50;;;;;;;7.93;6.00;;;10.40;1.00;;;;;;5035873;28;21034;-80
2024/02/01 01:31:18;;;;;;;6.03;5.43;;;10.50;1.00;;;;;;5036671;28;20467;-81
2024/02/01 01:33:48;;;;;;;5.93;5.17;;;10.40;1.00;;;;;;5039314;28;20468;-79
2024/02/01 01:36:16;;;;;;;7.90;6.07;;;10.40;1.00;;;;;;5038641;28;20481;-76
2024/02/01 01:38:44;;;;;;;5.73;5.30;;;10.50;1.00;;;;;;5037416;28;20449;-78
2024/02/01 01:41:12;;;;;;;5.20;4.90;;;10.40;1.00;;;;;;5038665;28;20461;-77
2024/02/01 01:43:40;;;;;;;5.30;4.90;;;10.50;1.00;;;;;;5035995;28;20460;-77
2024/02/01 01:46:09;;;;;;;5.70;5.20;;;10.40;1.00;;;;;;5036819;28;20451;-80
2024/02/01 01:48:38;;;;;;;6.40;5.90;;;10.40;1.00;;;;;;5036279;28;20457;-78
2024/02/01 01:51:09;;;;;;;6.60;5.27;;;10.40;1.00;;;;;;5034804;28;20472;-78
2024/02/01 01:53:40;;;;;;;6.60;5.60;;;10.30;1.00;;;;;;5035767;28;20483;-77
2024/02/01 01:56:09;;;;;;;9.87;5.90;;;10.30;1.00;;;;;;5038345;28;20441;-78
2024/02/01 01:58:39;;;;;;;5.10;4.60;;;10.30;1.00;;;;;;5036436;28;20472;-78
2024/02/01 02:01:09;;;;;;;5.37;4.90;;;10.30;1.00;;;;;;5036135;28;20611;-77
2024/02/01 02:03:38;;;;;;;5.87;5.30;;;10.30;1.00;;;;;;5035929;28;20494;-76
2024/02/01 02:06:08;;;;;;;4.53;4.10;;;10.20;1.00;;;;;;5035104;28;20539;-77
2024/02/01 02:08:36;;;;;;;5.10;4.70;;;10.30;1.00;;;;;;5036727;28;21030;-78
2024/02/01 02:11:05;;;;;;;5.57;5.17;;;10.30;1.00;;;;;;5037112;28;20456;-77
2024/02/01 02:13:33;;;;;;;5.90;5.40;;;10.40;1.00;;;;;;5035654;28;20480;-78
2024/02/01 02:16:01;;;;;;;8.37;5.30;;;10.30;1.00;;;;;;5035878;28;20464;-77
2024/02/01 02:18:29;;;;;;;5.23;4.73;;;10.30;1.00;;;;;;5036735;28;20471;-77
2024/02/01 02:21:01;;;;;;;7.57;4.90;;;10.30;1.00;;;;;;5036639;28;20481;-81
2024/02/01 02:23:30;;;;;;;5.73;4.97;;;10.40;1.00;;;;;;5035638;28;20479;-77
2024/02/01 02:25:59;;;;;;;5.83;5.10;;;10.30;1.00;;;;;;5033371;28;20452;-81
2024/02/01 02:28:27;;;;;;;5.40;5.10;;;10.40;1.00;;;;;;5036190;28;20467;-78
2024/02/01 02:30:55;;;;;;;7.10;5.70;;;10.40;1.00;;;;;;5033102;28;20455;-77
2024/02/01 02:33:24;;;;;;;5.57;5.23;;;10.40;1.00;;;;;;5038679;28;20464;-77
2024/02/01 02:35:52;;;;;;;6.17;5.57;;;10.40;1.00;;;;;;5034958;28;20471;-78
2024/02/01 02:38:22;;;;;;;6.33;5.83;;;10.50;99.90;;;;;;5035102;28;20488;-77
2024/02/01 02:40:52;;;;;;;6.53;5.87;;;10.50;99.90;;;;;;5034615;28;20479;-79
2024/02/01 02:43:20;;;;;;;6.33;5.67;;;10.50;99.90;;;;;;5036343;28;21009;-78
2024/02/01 02:45:48;;;;;;;5.10;4.70;;;10.50;99.90;;;;;;5037605;28;20465;-78
2024/02/01 02:48:16;;;;;;;6.23;5.57;;;10.60;99.90;;;;;;5036087;28;20518;-78
2024/02/01 02:50:44;;;;;;;5.97;5.47;;;10.60;99.90;;;;;;5036392;28;20479;-79
2024/02/01 02:53:12;;;;;;;5.07;4.60;;;10.50;99.90;;;;;;5031736;28;20472;-79
2024/02/01 02:55:40;;;;;;;5.47;5.07;;;10.50;99.90;;;;;;5035697;28;20825;-78
2024/02/01 02:58:11;;;;;;;5.27;4.77;;;10.50;99.90;;;;;;5034808;28;20479;-77
2024/02/01 03:00:40;;;;;;;4.93;4.43;;;10.50;99.90;;;;;;5035187;28;20547;-78
2024/02/01 03:03:08;;;;;;;5.20;4.40;;;10.50;99.90;;;;;;5035777;28;20474;-78
2024/02/01 03:05:36;;;;;;;4.20;3.90;;;10.50;99.90;;;;;;5036661;28;20543;-77
2024/02/01 03:08:05;;;;;;;8.03;5.00;;;10.50;99.90;;;;;;5035417;28;20507;-77
2024/02/01 03:10:33;;;;;;;4.90;4.20;;;10.50;99.90;;;;;;5033979;28;20567;-77
2024/02/01 03:13:01;;;;;;;4.97;4.00;;;10.50;99.90;;;;;;5036673;28;20463;-79
2024/02/01 03:15:31;;;;;;;4.50;4.10;;;10.50;99.90;;;;;;5037134;28;20444;-77
2024/02/01 03:17:59;;;;;;;3.77;3.47;;;10.60;99.90;;;;;;5029147;28;20445;-78
2024/02/01 03:20:27;;;;;;;4.03;3.73;;;10.50;99.90;;;;;;5034462;28;20551;-78
2024/02/01 03:22:55;;;;;;;4.43;4.10;;;10.50;99.90;;;;;;5035641;28;20384;-77
2024/02/01 03:25:28;;;;;;;3.70;3.40;;;10.50;99.90;;;;;;5038396;28;20205;-78
2024/02/01 03:28:00;;;;;;;4.80;4.30;;;10.50;99.90;;;;;;5034871;28;20440;-78
2024/02/01 03:30:31;;;;;;;3.50;3.30;;;10.50;99.90;;;;;;5035706;28;20534;-77
2024/02/01 03:33:02;;;;;;;3.70;3.20;;;10.50;99.90;;;;;;5031157;28;20486;-78
2024/02/01 03:35:31;;;;;;;4.70;3.00;;;10.50;99.90;;;;;;5034584;28;20456;-76
2024/02/01 03:38:00;;;;;;;3.80;3.60;;;10.50;99.90;;;;;;5033369;28;20451;-80
2024/02/01 03:40:29;;;;;;;3.53;3.33;;;10.50;99.90;;;;;;5036328;28;21111;-77
2024/02/01 03:42:57;;;;;;;4.50;3.53;;;10.40;99.90;;;;;;5036530;28;20489;-77
2024/02/01 03:45:25;;;;;;;3.30;3.10;;;10.40;99.90;;;;;;5034345;28;20463;-77
2024/02/01 03:47:54;;;;;;;3.20;3.00;;;10.50;99.90;;;;;;5035582;28;20487;-77
2024/02/01 03:50:23;;;;;;;3.23;3.03;;;10.50;99.90;;;;;;5035108;28;20490;-79
2024/02/01 03:52:51;;;;;;;2.80;2.60;;;10.40;99.90;;;;;;5034014;28;20479;-77
2024/02/01 03:55:20;;;;;;;3.10;2.80;;;10.40;99.90;;;;;;5034905;28;20452;-78
2024/02/01 03:57:48;;;;;;;4.43;3.37;;;10.40;99.90;;;;;;5039569;28;20453;-77
2024/02/01 04:00:28;;;;;;;3.00;2.80;;;10.30;99.90;;;;;;5039382;28;20451;-78
2024/02/01 04:03:03;;;;;;;2.80;2.60;;;10.40;99.90;;;;;;5039527;28;20467;-77
2024/02/01 04:05:36;;;;;;;2.90;2.70;;;10.40;99.90;;;;;;5040377;28;20455;-77
2024/02/01 04:08:07;;;;;;;3.17;3.00;;;10.40;99.90;;;;;;5032704;28;20517;-76
2024/02/01 04:10:36;;;;;;;3.30;3.10;;;10.40;99.90;;;;;;5038355;28;20522;-77
2024/02/01 04:13:05;;;;;;;3.07;2.73;;;10.40;99.90;;;;;;5039514;28;20562;-78
2024/02/01 04:15:34;;;;;;;3.40;3.10;;;10.30;99.90;;;;;;5041901;28;20559;-76
2024/02/01 04:18:04;;;;;;;3.00;2.80;;;10.30;99.90;;;;;;5035084;28;20510;-77
2024/02/01 04:20:32;;;;;;;2.73;2.53;;;10.40;99.90;;;;;;5038937;28;20458;-77
2024/02/01 04:23:01;;;;;;;3.53;3.07;;;10.40;99.90;;;;;;5038103;28;20538;-79
2024/02/01 04:25:29;;;;;;;2.80;2.60;;;10.30;99.90;;;;;;5036333;28;20792;-77
2024/02/01 04:27:57;;;;;;;4.33;3.07;;;10.40;99.90;;;;;;5039939;28;20456;-78
2024/02/01 04:30:25;;;;;;;2.93;2.73;;;10.30;99.90;;;;;;5039206;28;20509;-79
2024/02/01 04:32:53;;;;;;;2.60;2.40;;;10.40;99.90;;;;;;5037036;28;20472;-80
2024/02/01 04:35:24;;;;;;;3.30;3.10;;;10.40;99.90;;;;;;5035579;28;21192;-79
2024/02/01 04:37:52;;;;;;;2.70;2.50;;;10.50;99.90;;;;;;5037231;28;20976;-80
2024/02/01 04:40:22;;;;;;;2.43;2.30;;;10.40;99.90;;;;;;5039202;28;20527;-78
2024/02/01 04:42:51;;;;;;;2.30;2.17;;;10.50;99.90;;;;;;5040002;28;20491;-78
2024/02/01 04:45:20;;;;;;;2.40;2.30;;;10.40;99.90;;;;;;5037386;28;20440;-79
2024/02/01 04:47:48;;;;;;;2.30;2.20;;;10.40;99.90;;;;;;5040675;28;20531;-77
2024/02/01 04:50:16;;;;;;;2.90;2.67;;;10.40;99.90;;;;;;5039987;28;20470;-76
2024/02/01 04:52:45;;;;;;;2.13;2.03;;;10.40;99.90;;;;;;5039512;28;20474;-81
2024/02/01 04:55:14;;;;;;;3.10;2.57;;;10.40;99.90;;;;;;5032998;28;21032;-80
2024/02/01 04:57:42;;;;;;;3.93;2.70;;;10.40;99.90;;;;;;5033397;28;20476;-77
2024/02/01 05:00:14;;;;;;;4.50;2.93;;;10.40;99.90;;;;;;5033822;28;20499;-80
2024/02/01 05:02:46;;;;;;;2.73;2.53;;;10.40;99.90;;;;;;5030457;28;21028;-78
2024/02/01 05:05:16;;;;;;;3.23;2.80;;;10.50;99.90;;;;;;5037834;28;20460;-79
2024/02/01 05:07:45;;;;;;;3.23;2.53;;;10.50;99.90;;;;;;5035010;28;20456;-80
2024/02/01 05:10:14;;;;;;;2.87;2.67;;;10.50;99.90;;;;;;5034256;28;20467;-79
2024/02/01 05:12:43;;;;;;;2.50;2.40;;;10.40;99.90;;;;;;5034708;28;20468;-77
2024/02/01 05:15:12;;;;;;;2.87;2.67;;;10.50;99.90;;;;;;5036229;28;20463;-77
2024/02/01 05:17:41;;;;;;;3.03;2.83;;;10.50;99.90;;;;;;5034446;28;20452;-79
2024/02/01 05:20:11;;;;;;;2.60;2.50;;;10.40;99.90;;;;;;5034756;28;20451;-78
2024/02/01 05:22:41;;;;;;;3.97;3.67;;;10.40;99.90;;;;;;5036371;28;20578;-77
2024/02/01 05:25:15;;;;;;;3.10;2.80;;;10.40;99.90;;;;;;5034954;28;20452;-77
2024/02/01 05:27:50;;;;;;;3.50;2.80;;;10.40;99.90;;;;;;5035375;28;20480;-78
2024/02/01 05:30:21;;;;;;;3.63;3.30;;;10.50;99.90;;;;;;5034177;28;20540;-79
2024/02/01 05:32:52;;;;;;;3.00;2.80;;;10.50;99.90;;;;;;5030451;28;20482;-79
2024/02/01 05:35:27;;;;;;;3.80;3.20;;;10.50;99.90;;;;;;5034659;28;20468;-80
2024/02/01 05:37:59;;;;;;;2.73;2.60;;;10.50;99.90;;;;;;5032813;28;20467;-78
2024/02/01 05:40:29;;;;;;;2.90;2.80;;;10.50;99.90;;;;;;5039833;28;20448;-77
2024/02/01 05:42:58;;;;;;;3.10;2.90;;;10.50;99.90;;;;;;5037031;28;20533;-77
2024/02/01 05:45:27;;;;;;;3.60;3.40;;;10.50;99.90;;;;;;5033068;28;20456;-78
2024/02/01 05:47:57;;;;;;;3.93;3.00;;;10.40;99.90;;;;;;5036328;28;20551;-77
2024/02/01 05:50:26;;;;;;;3.80;2.60;;;10.40;99.90;;;;;;5033658;28;20518;-79
2024/02/01 05:52:55;;;;;;;3.30;3.00;;;10.40;99.90;;;;;;5036462;28;20472;-79
2024/02/01 05:55:23;;;;;;;2.60;2.30;;;10.40;99.90;;;;;;5032628;28;20456;-80
2024/02/01 05:57:53;;;;;;;3.03;2.93;;;10.40;99.90;;;;;;5035521;28;20459;-77
2024/02/01 06:00:21;;;;;;;3.20;3.00;;;10.40;99.90;;;;;;5031082;28;20468;-79
2024/02/01 06:02:52;;;;;;;3.37;3.17;;;10.40;99.90;;;;;;5035277;28;20483;-79
2024/02/01 06:05:21;;;;;;;3.10;2.90;;;10.30;99.90;;;;;;5035356;28;20535;-80
2024/02/01 06:07:49;;;;;;;3.50;3.30;;;10.40;99.90;;;;;;5029612;28;20553;-80
2024/02/01 06:10:17;;;;;;;3.60;3.40;;;10.40;99.90;;;;;;5034852;28;20460;-78
2024/02/01 06:12:45;;;;;;;3.50;3.30;;;10.40;99.90;;;;;;5031481;28;20472;-80
2024/02/01 06:15:15;;;;;;;6.60;4.20;;;10.30;99.90;;;;;;5032893;28;20515;-77
2024/02/01 06:17:43;;;;;;;3.50;3.20;;;10.40;99.90;;;;;;5033796;28;20452;-80
2024/02/01 06:20:13;;;;;;;3.60;3.40;;;10.40;99.90;;;;;;5031794;28;20448;-80
2024/02/01 06:22:41;;;;;;;3.63;3.23;;;10.40;99.90;;;;;;5034489;28;20483;-75
2024/02/01 06:25:11;;;;;;;4.03;3.83;;;10.40;99.90;;;;;;5035432;28;20448;-77
2024/02/01 06:27:40;;;;;;;4.27;3.70;;;10.40;99.90;;;;;;5034809;28;20467;-78
2024/02/01 06:30:12;;;;;;;5.50;4.83;;;10.40;99.90;;;;;;5028952;28;20472;-79
2024/02/01 06:32:42;;;;;;;5.30;4.83;;;10.40;99.90;;;;;;5030932;28;20469;-78
2024/02/01 06:35:17;;;;;;;4.17;2.87;;;10.40;99.90;;;;;;5036211;28;20519;-79
2024/02/01 06:37:52;;;;;;;3.20;2.90;;;10.40;99.90;;;;;;5034398;28;20444;-81
2024/02/01 06:40:47;;;;;;;3.00;2.80;;;10.30;1.00;;;;;;5034920;28;20529;-79
2024/02/01 06:43:31;;;;;;;3.43;3.23;;;10.30;1.00;;;;;;5037747;28;20568;-78
2024/02/01 06:46:08;;;;;;;6.70;4.43;;;10.40;1.00;;;;;;5039038;28;20464;-78
2024/02/01 06:48:46;;;;;;;4.80;3.13;;;10.30;1.00;;;;;;5034938;28;20459;-78
2024/02/01 06:51:25;;;;;;;5.13;3.10;;;10.30;1.00;;;;;;5034754;28;20510;-79
2024/02/01 06:53:56;;;;;;;4.03;3.63;;;10.30;1.00;;;;;;5032176;28;21502;-82
2024/02/01 06:56:48;;;;;;;3.73;3.43;;;10.30;1.00;;;;;;5035763;28;20836;-80
2024/02/01 06:59:30;;;;;;;3.20;3.03;;;10.20;1.00;;;;;;5035799;28;20455;-80
2024/02/01 07:02:11;;;;;;;2.63;2.53;;;10.20;45.60;;;;;;5035757;28;20476;-79
2024/02/01 07:04:53;;;;;;;3.43;3.13;;;10.20;46.90;;;;;;5031287;28;20896;-77
2024/02/01 07:07:26;;;;;;;3.30;3.10;;;10.20;99.90;;;;;;5035602;28;20488;-79
2024/02/01 07:10:05;;;;;;;3.30;3.10;;;10.20;99.90;;;;;;5036451;28;20975;-78
2024/02/01 07:12:42;;;;;;;3.33;3.13;;;10.20;99.90;;;;;;5034669;28;20476;-79
2024/02/01 07:15:30;;;;;;;4.53;4.20;;;10.20;99.90;;;;;;5036043;28;20538;-77
2024/02/01 07:18:05;;;;;;;4.07;3.77;;;10.20;99.90;;;;;;5034372;28;20553;-77
2024/02/01 07:20:46;;;;;;;3.70;3.40;;;10.10;99.90;;;;;;5034035;28;20439;-79
2024/02/01 07:26:16;;;;;;;3.30;3.10;;;10.20;99.90;;;;;;5030242;28;20455;-76
2024/02/01 07:59:26;;;;;;;3.23;3.03;;;9.90;99.90;;;;;;5031800;28;20488;-80
2024/02/01 08:02:13;;;;;;;3.77;3.57;;;9.90;99.90;;;;;;5031333;28;20483;-80
2024/02/01 08:10:10;;;;;;;3.20;3.00;;;9.90;99.90;;;;;;5030430;28;20464;-81
2024/02/01 08:12:38;;;;;;;3.77;3.57;;;9.90;1.00;;;;;;5032064;28;20476;-79
2024/02/01 08:15:09;;;;;;;3.97;3.67;;;9.90;99.90;;;;;;5030411;28;20444;-80
2024/02/01 08:17:38;;;;;;;4.07;3.23;;;9.70;1.00;;;;;;5031559;28;20445;-79
2024/02/01 08:20:12;;;;;;;4.13;3.57;;;9.80;1.00;;;;;;5033516;28;20464;-77
2024/02/01 08:22:41;;;;;;;4.10;3.80;;;9.80;1.00;;;;;;5036350;28;20495;-79
2024/02/01 08:25:11;;;;;;;5.15;3.80;;;9.90;1.00;;;;;;5030098;28;20506;-78
2024/02/01 08:27:49;;;;;;;3.50;3.33;;;9.90;1.00;;;;;;5032685;28;20376;-81
2024/02/01 08:30:19;;;;;;;3.73;3.43;;;9.90;1.00;;;;;;5028897;28;20496;-78
2024/02/01 08:32:48;;;;;;;3.83;3.63;;;10.00;1.00;;;;;;5034944;28;20954;-77
2024/02/01 08:35:17;;;;;;;5.77;4.70;;;9.90;1.00;;;;;;5037378;28;20448;-78
2024/02/01 08:37:46;;;;;;;3.40;3.20;;;9.90;1.00;;;;;;5036009;28;20451;-79
2024/02/01 08:40:20;;;;;;;3.70;3.50;;;9.90;1.00;;;;;;5039960;28;21367;-78
2024/02/01 08:42:57;;;;;;;3.33;3.13;;;10.00;1.00;;;;;;5038758;28;20487;-83
2024/02/01 08:45:28;;;;;;;3.33;3.03;;;9.90;1.00;;;;;;5034283;28;20475;-78
2024/02/01 08:48:00;;;;;;;4.03;3.10;;;9.90;1.00;;;;;;5036029;28;20449;-79
2024/02/01 08:50:30;;;;;;;3.20;3.00;;;9.90;1.00;;;;;;5040268;28;20459;-79
2024/02/01 08:52:58;;;;;;;3.73;3.43;;;9.90;1.00;;;;;;5038121;28;21210;-77
2024/02/01 08:55:29;;;;;;;2.90;2.80;;;9.90;1.00;;;;;;5039335;28;20455;-80
2024/02/01 08:58:08;;;;;;;3.10;3.00;;;10.00;1.00;;;;;;5039261;28;20452;-80
2024/02/01 09:00:36;;;;;;;3.53;3.33;;;10.00;99.90;;;;;;5036280;28;20456;-77
2024/02/01 09:03:08;;;;;;;3.10;2.90;;;9.90;1.00;;;;;;5039997;28;20472;-81
2024/02/01 09:05:38;;;;;;;2.93;2.73;;;9.90;1.00;;;;;;5034476;28;20452;-79
2024/02/01 09:08:08;;;;;;;3.30;3.10;;;9.80;1.00;;;;;;5034320;28;20559;-78
2024/02/01 09:10:39;;;;;;;3.23;3.10;;;9.80;99.90;;;;;;5032614;28;20449;-79
2024/02/01 09:13:08;;;;;;;2.93;2.80;;;9.90;99.90;;;;;;5034702;28;20821;-81
2024/02/01 09:15:36;;;;;;;6.37;3.60;;;9.90;99.90;;;;;;5034393;28;20603;-77
2024/02/01 09:18:04;;;;;;;3.40;3.20;;;9.90;99.90;;;;;;5033494;28;21388;-78
2024/02/01 09:20:33;;;;;;;8.80;7.23;;;9.90;99.90;;;;;;5032403;28;20454;-81
2024/02/01 09:23:01;;;;;;;4.03;3.73;;;9.90;99.90;;;;;;5030509;28;20479;-78
2024/02/01 09:25:30;;;;;;;4.30;4.10;;;9.90;99.90;;;;;;5035454;28;20578;-80
2024/02/01 09:28:00;;;;;;;3.63;3.43;;;9.90;99.90;;;;;;5037613;28;20456;-77
2024/02/01 09:30:31;;;;;;;3.87;3.67;;;10.00;99.90;;;;;;5035052;28;20464;-81
2024/02/01 09:32:59;;;;;;;3.60;3.40;;;10.00;99.90;;;;;;5032910;28;20468;-79
2024/02/01 09:35:28;;;;;;;4.37;4.07;;;10.00;99.90;;;;;;5034609;28;20470;-80
2024/02/01 09:37:56;;;;;;;3.83;3.63;;;10.00;1.00;;;;;;5034289;28;20456;-79
2024/02/01 09:40:26;;;;;;;4.90;4.60;;;10.00;99.90;;;;;;5034775;28;20454;-79
2024/02/01 09:42:54;;;;;;;4.87;4.57;;;9.90;1.00;;;;;;5036835;28;20245;-78
2024/02/01 09:45:28;;;;;;;4.10;3.93;;;10.00;99.90;;;;;;5037810;28;20480;-80
2024/02/01 09:47:57;;;;;;;5.17;4.67;;;10.00;1.00;;;;;;5036331;28;20443;-77
2024/02/01 09:50:25;;;;;;;5.40;4.90;;;10.00;99.90;;;;;;5036985;28;20825;-79
2024/02/01 09:52:54;;;;;;;4.60;4.10;;;10.00;1.00;;;;;;5038287;28;20472;-79
2024/02/01 09:55:22;;;;;;;3.80;3.50;;;10.00;1.00;;;;;;5039812;28;20961;-78
2024/02/01 09:57:52;;;;;;;4.77;4.47;;;10.00;99.90;;;;;;5037596;28;20456;-79
2024/02/01 10:00:23;;;;;;;3.80;3.60;;;10.10;71.50;;;;;;5039336;28;20468;-80
2024/02/01 10:02:54;;;;;;;4.23;4.03;;;10.10;1.00;;;;;;5039403;28;20558;-78
2024/02/01 10:05:23;;;;;;;3.83;3.63;;;10.10;99.90;;;;;;5037486;28;20472;-77
2024/02/01 10:07:52;;;;;;;4.57;4.30;;;10.10;99.90;;;;;;5039645;28;20448;-77
2024/02/01 10:10:21;;;;;;;3.90;3.67;;;10.10;1.00;;;;;;5040174;28;20791;-78
2024/02/01 10:12:57;;;;;;;4.00;3.80;;;10.10;1.00;;;;;;5041590;28;20475;-78
2024/02/01 10:15:30;;;;;;;4.30;4.10;;;10.10;1.00;;;;;;5040897;28;20440;-78
2024/02/01 10:18:01;;;;;;;4.37;4.07;;;10.10;1.00;;;;;;5039486;28;20452;-78
2024/02/01 10:20:39;;;;;;;4.20;4.00;;;10.10;99.90;;;;;;5039466;28;20771;-77
2024/02/01 10:23:09;;;;;;;4.50;4.10;;;10.10;99.90;;;;;;5039726;28;20526;-79
2024/02/01 10:25:41;;;;;;;4.70;4.50;;;10.10;99.90;;;;;;5036829;28;20476;-77
2024/02/01 10:28:11;;;;;;;7.90;5.77;;;10.10;1.00;;;;;;5036781;28;20448;-78
2024/02/01 10:30:41;;;;;;;4.30;4.00;;;10.10;99.90;;;;;;5038669;28;20465;-79
2024/02/01 10:33:13;;;;;;;4.00;3.80;;;10.10;99.90;;;;;;5036810;28;20472;-78
2024/02/01 10:35:43;;;;;;;4.70;4.50;;;10.20;1.00;;;;;;5035894;28;20460;-78
2024/02/01 10:38:14;;;;;;;4.90;4.50;;;10.30;1.00;;;;;;5037496;28;20531;-78
2024/02/01 10:40:58;;;;;;;4.10;3.90;;;10.30;99.90;;;;;;5039877;28;20448;-78
2024/02/01 10:43:28;;;;;;;3.73;3.60;;;10.30;99.90;;;;;;5038017;28;21083;-80
2024/02/01 10:46:06;;;;;;;4.10;3.80;;;10.30;1.00;;;;;;5036409;28;20482;-78
2024/02/01 10:48:43;;;;;;;5.70;5.37;;;10.40;1.00;;;;;;5034624;28;20541;-77
2024/02/01 10:51:13;;;;;;;3.93;3.73;;;10.40;1.00;;;;;;5036962;28;20450;-81
2024/02/01 10:53:43;;;;;;;4.07;3.87;;;10.40;99.90;;;;;;5035529;28;20555;-79
2024/02/01 10:56:15;;;;;;;4.40;4.10;;;10.50;99.90;;;;;;5038850;28;20468;-79
2024/02/01 10:58:48;;;;;;;2.90;2.80;;;10.60;99.90;;;;;;5034661;28;20498;-80
2024/02/01 11:01:19;;;;;;;3.30;3.10;;;10.60;99.90;;;;;;5036168;28;20451;-78
2024/02/01 11:03:50;;;;;;;2.83;2.73;;;10.60;1.00;;;;;;5036735;28;20482;-79
2024/02/01 11:06:19;;;;;;;3.00;2.90;;;10.60;72.40;;;;;;5036659;28;20491;-77
2024/02/01 11:08:51;;;;;;;3.60;3.40;;;10.70;1.00;;;;;;5034613;28;20459;-77
2024/02/01 11:11:21;;;;;;;3.23;3.13;;;10.70;1.00;;;;;;5033532;28;20495;-77
2024/02/01 11:14:07;;;;;;;3.70;3.60;;;10.70;99.90;;;;;;5032698;28;20546;-81
2024/02/01 11:16:38;;;;;;;3.70;3.50;;;10.60;99.90;;;;;;5030001;28;20457;-79
2024/02/01 11:19:12;;;;;;;2.60;2.60;;;10.60;1.00;;;;;;5029151;28;21234;-79
2024/02/01 11:21:48;;;;;;;2.90;2.80;;;10.60;1.00;;;;;;5032583;28;20456;-79
2024/02/01 11:24:19;;;;;;;2.50;2.50;;;10.60;13.10;;;;;;5033894;28;20470;-80
2024/02/01 11:26:47;;;;;;;2.90;2.80;;;10.50;99.90;;;;;;5033538;28;20460;-79
2024/02/01 11:29:21;;;;;;;2.83;2.73;;;10.50;1.00;;;;;;5034467;28;20456;-80
2024/02/01 11:31:56;;;;;;;2.97;2.87;;;10.50;90.20;;;;;;5035357;28;20482;-81
2024/02/01 11:34:27;;;;;;;2.80;2.70;;;10.50;99.90;;;;;;5037897;28;20452;-78
2024/02/01 11:36:55;;;;;;;2.97;2.87;;;10.50;99.90;;;;;;5036756;28;20456;-79
2024/02/01 11:39:25;;;;;;;2.90;2.80;;;10.50;99.90;;;;;;5036538;28;20452;-82
2024/02/01 11:41:55;;;;;;;2.90;2.80;;;10.50;1.00;;;;;;5035583;28;20448;-81
2024/02/01 11:44:23;;;;;;;3.57;3.37;;;10.50;80.30;;;;;;5035383;28;21066;-78
2024/02/01 11:46:53;;;;;;;2.90;2.80;;;10.50;99.90;;;;;;5036411;28;20471;-81
2024/02/01 11:49:23;;;;;;;3.20;3.00;;;10.50;99.90;;;;;;5035064;28;20973;-80
2024/02/01 11:52:14;;;;;;;3.20;3.10;;;10.50;1.00;;;;;;5035251;28;20506;-81
2024/02/01 11:54:46;;;;;;;3.40;3.30;;;10.50;99.90;;;;;;5030593;28;20460;-80
2024/02/01 11:57:17;;;;;;;3.40;3.30;;;10.60;1.00;;;;;;5035594;28;20443;-79
2024/02/01 11:59:46;;;;;;;3.30;3.20;;;10.60;1.00;;;;;;5034086;28;20471;-80
2024/02/01 12:02:15;;;;;;;3.30;3.20;;;10.60;99.90;;;;;;5034649;28;20533;-77
2024/02/01 12:04:45;;;;;;;3.60;3.30;;;10.60;39.00;;;;;;5034499;28;20546;-79
2024/02/01 12:07:17;;;;;;;3.47;3.37;;;10.60;1.00;;;;;;5032241;28;20447;-80
2024/02/01 12:09:47;;;;;;;3.60;3.50;;;10.60;1.00;;;;;;5033225;28;21161;-78
2024/02/01 12:12:17;;;;;;;3.63;3.53;;;10.60;99.90;;;;;;5032555;28;20558;-77
2024/02/01 12:14:46;;;;;;;3.57;3.47;;;10.70;22.60;;;;;;5036119;28;20486;-79
2024/02/01 12:17:16;;;;;;;3.93;3.73;;;10.70;50.40;;;;;;5037237;28;20448;-79
2024/02/01 12:19:46;;;;;;;3.60;3.50;;;10.70;99.90;;;;;;5039597;28;20538;-77
2024/02/01 12:22:19;;;;;;;3.30;3.20;;;10.70;99.90;;;;;;5038851;28;20475;-78
2024/02/01 12:24:47;;;;;;;3.23;3.13;;;10.80;1.00;;;;;;5037440;28;20460;-78
2024/02/01 12:27:17;;;;;;;3.30;3.20;;;10.80;1.00;;;;;;5034196;28;20455;-79
2024/02/01 12:29:48;;;;;;;3.90;3.70;;;10.80;99.90;;;;;;5036585;28;21110;-78
2024/02/01 12:32:17;;;;;;;3.40;3.30;;;10.80;99.90;;;;;;5038227;28;20464;-78
2024/02/01 12:34:45;;;;;;;3.43;3.33;;;10.80;99.90;;;;;;5036374;28;20986;-80
2024/02/01 12:37:15;;;;;;;3.80;3.70;;;10.90;1.00;;;;;;5041939;28;20463;-78
2024/02/01 12:39:43;;;;;;;3.80;3.70;;;10.90;99.90;;;;;;5036498;28;20468;-78
2024/02/01 12:42:14;;;;;;;3.40;3.30;;;10.90;99.90;;;;;;5040639;28;20481;-79
2024/02/01 12:44:43;;;;;;;3.20;3.10;;;10.90;99.90;;;;;;5040638;28;20453;-79
2024/02/01 12:47:11;;;;;;;2.80;2.80;;;10.90;1.00;;;;;;5036511;28;20476;-77
2024/02/01 12:49:40;;;;;;;3.50;3.40;;;10.90;95.00;;;;;;5040899;28;21352;-77
2024/02/01 12:52:08;;;;;;;3.67;3.47;;;10.90;1.00;;;;;;5038296;28;20481;-79
2024/02/01 12:54:40;;;;;;;3.90;3.60;;;10.90;1.00;;;;;;5038071;28;20448;-78
2024/02/01 12:57:08;;;;;;;3.40;3.30;;;10.90;99.90;;;;;;5039133;28;20429;-82
2024/02/01 12:59:37;;;;;;;3.90;3.80;;;10.90;1.00;;;;;;5039965;28;20539;-79
2024/02/01 13:02:09;;;;;;;4.50;4.40;;;10.90;1.00;;;;;;5033114;28;20490;-80
2024/02/01 13:04:39;;;;;;;3.90;3.80;;;10.90;1.00;;;;;;5036495;28;20461;-79
2024/02/01 13:07:11;;;;;;;3.73;3.63;;;10.80;99.90;;;;;;5039023;28;20634;-77
2024/02/01 13:09:43;;;;;;;4.27;3.87;;;10.80;1.00;;;;;;5037969;28;20456;-81
2024/02/01 13:12:21;;;;;;;4.10;3.90;;;10.80;1.00;;;;;;5039878;28;20469;-77
2024/02/01 13:14:59;;;;;;;4.17;4.07;;;10.80;99.90;;;;;;5037951;28;21153;-77
2024/02/01 13:17:28;;;;;;;4.30;4.20;;;10.70;99.90;;;;;;5037654;28;20544;-80
2024/02/01 13:19:58;;;;;;;4.80;4.60;;;10.70;99.90;;;;;;5034744;28;20488;-77
2024/02/01 13:22:27;;;;;;;3.90;3.80;;;10.70;1.00;;;;;;5038967;28;20568;-81
2024/02/01 13:24:57;;;;;;;4.23;4.10;;;10.60;99.90;;;;;;5037014;28;20511;-79
2024/02/01 13:27:26;;;;;;;4.00;3.90;;;10.60;1.00;;;;;;5038923;28;20518;-78
2024/02/01 13:29:54;;;;;;;4.20;4.10;;;10.60;1.00;;;;;;5038547;28;20510;-79
2024/02/01 13:32:22;;;;;;;4.10;4.00;;;10.60;99.90;;;;;;5037587;28;20464;-79
2024/02/01 13:34:50;;;;;;;4.00;3.90;;;10.60;99.90;;;;;;5039080;28;20455;-79
2024/02/01 13:37:18;;;;;;;4.07;3.97;;;10.60;1.00;;;;;;5037654;28;20528;-80
2024/02/01 13:39:47;;;;;;;3.87;3.77;;;10.60;68.90;;;;;;5036709;28;20448;-80
2024/02/01 13:42:16;;;;;;;4.37;4.27;;;10.60;59.90;;;;;;5036399;28;20496;-79
2024/02/01 13:44:44;;;;;;;4.20;4.10;;;10.50;99.90;;;;;;5040305;28;20551;-78
2024/02/01 13:47:13;;;;;;;4.33;4.20;;;10.50;99.90;;;;;;5036639;28;20471;-77